Time;durP1;ratioP1;P1;durP2;ratioP2;P2;SDS_P1;SDS_P2;PMS_P1;PMS_P2;Temp;Humidity;BMP_temperature;BMP_pressure;BME280_temperature;BME280_humidity;BME280_pressure;Samples;Min_cycle;Max_cycle;Signal;HPM_P1;HPM_P2
2022/05/13 00:02:07;;;;;;;11.33;4.60;;;10.60;85.40;;;;;;5113992;28;20210;-85
2022/05/13 00:04:33;;;;;;;8.70;3.70;;;10.70;85.20;;;;;;5115354;28;20174;-85
2022/05/13 00:06:59;;;;;;;14.17;4.57;;;10.70;85.20;;;;;;5113927;28;20180;-85
2022/05/13 00:12:10;;;;;;;12.70;4.20;;;10.50;85.90;;;;;;5115670;28;20201;-85
2022/05/13 00:14:36;;;;;;;10.73;4.30;;;10.60;85.90;;;;;;5115112;27;20174;-84
2022/05/13 00:17:02;;;;;;;9.67;4.40;;;10.60;85.90;;;;;;5114520;28;20177;-85
2022/05/13 00:19:27;;;;;;;17.90;5.63;;;10.50;85.90;;;;;;5115227;28;20170;-84
2022/05/13 00:21:53;;;;;;;17.27;5.83;;;10.30;86.20;;;;;;5113702;28;20288;-85
2022/05/13 00:24:18;;;;;;;15.83;6.47;;;10.30;86.60;;;;;;5113399;28;20205;-84
2022/05/13 00:26:44;;;;;;;19.53;7.70;;;10.40;87.00;;;;;;5114449;28;20174;-84
2022/05/13 00:29:09;;;;;;;18.47;6.10;;;10.50;86.90;;;;;;5115167;28;20173;-85
2022/05/13 00:31:35;;;;;;;16.20;5.60;;;10.50;86.60;;;;;;5115643;28;20177;-85
2022/05/13 00:34:01;;;;;;;17.47;6.30;;;10.50;86.60;;;;;;5114118;28;20227;-86
2022/05/13 00:36:27;;;;;;;12.67;5.50;;;10.60;86.50;;;;;;5114028;28;20632;-84
2022/05/13 00:38:52;;;;;;;17.30;5.63;;;10.60;86.40;;;;;;5113628;28;20192;-84
2022/05/13 00:41:18;;;;;;;17.60;5.73;;;10.40;86.60;;;;;;5113546;28;20213;-83
2022/05/13 00:43:46;;;;;;;22.33;6.13;;;10.40;86.90;;;;;;5114732;28;20272;-85
2022/05/13 00:46:12;;;;;;;11.73;5.73;;;10.30;87.10;;;;;;5113492;28;20178;-84
2022/05/13 00:48:38;;;;;;;12.90;5.40;;;10.30;87.00;;;;;;5114532;27;20180;-84
2022/05/13 00:51:10;;;;;;;11.17;6.10;;;10.40;87.10;;;;;;5113322;28;20180;-85
2022/05/13 00:53:36;;;;;;;13.10;5.77;;;10.30;87.20;;;;;;5113072;28;20186;-85
2022/05/13 00:56:02;;;;;;;16.30;5.97;;;10.30;87.30;;;;;;5113295;28;20177;-83
2022/05/13 00:58:29;;;;;;;19.20;6.03;;;10.30;87.40;;;;;;5112923;28;20719;-84
2022/05/13 01:00:54;;;;;;;16.67;5.73;;;10.30;87.40;;;;;;5112893;28;20209;-85
2022/05/13 01:03:21;;;;;;;18.60;5.83;;;10.30;87.30;;;;;;5114234;28;20190;-84
2022/05/13 01:05:53;;;;;;;15.67;6.30;;;10.30;87.30;;;;;;5114444;28;20163;-84
2022/05/13 01:08:19;;;;;;;14.53;5.67;;;10.20;87.50;;;;;;5112902;28;20639;-84
2022/05/13 01:10:46;;;;;;;14.07;5.77;;;10.20;87.50;;;;;;5114047;28;20219;-83
2022/05/13 01:13:15;;;;;;;17.77;5.50;;;10.10;87.60;;;;;;5112700;28;20201;-84
2022/05/13 01:15:42;;;;;;;12.17;5.73;;;10.00;87.90;;;;;;5112867;28;20261;-84
2022/05/13 01:18:10;;;;;;;17.40;5.93;;;10.00;88.10;;;;;;5114152;28;20171;-84
2022/05/13 01:20:50;;;;;;;18.57;6.20;;;9.90;88.10;;;;;;5112656;28;20174;-84
2022/05/13 01:23:22;;;;;;;14.93;5.57;;;10.00;88.40;;;;;;5113073;28;20230;-84
2022/05/13 01:25:51;;;;;;;15.13;6.03;;;10.00;88.30;;;;;;5112694;28;20653;-84
2022/05/13 01:28:23;;;;;;;9.17;5.60;;;10.10;88.20;;;;;;5113885;28;20166;-84
2022/05/13 01:30:51;;;;;;;17.70;6.00;;;10.10;88.10;;;;;;5114080;28;20161;-84
2022/05/13 01:33:18;;;;;;;19.53;6.27;;;10.10;88.10;;;;;;5113760;28;20279;-84
2022/05/13 01:35:48;;;;;;;12.87;6.33;;;10.10;88.20;;;;;;5112391;28;20265;-84
2022/05/13 01:38:15;;;;;;;17.53;7.33;;;10.00;88.30;;;;;;5114435;28;20223;-84
2022/05/13 01:40:41;;;;;;;14.03;6.07;;;9.90;88.50;;;;;;5113949;28;20239;-83
2022/05/13 01:43:07;;;;;;;15.63;6.20;;;9.90;88.70;;;;;;5112560;28;20225;-85
2022/05/13 01:45:33;;;;;;;13.90;6.20;;;9.90;88.70;;;;;;5112669;28;20174;-84
2022/05/13 01:47:59;;;;;;;21.27;6.50;;;9.80;88.80;;;;;;5112470;28;20242;-84
2022/05/13 01:50:26;;;;;;;22.43;6.83;;;9.90;88.90;;;;;;5112629;28;20635;-83
2022/05/13 01:52:53;;;;;;;11.67;6.30;;;9.90;88.80;;;;;;5112372;28;20196;-85
2022/05/13 01:55:19;;;;;;;16.63;6.43;;;10.00;88.70;;;;;;5113881;28;20185;-84
2022/05/13 01:57:45;;;;;;;18.93;6.67;;;10.00;88.70;;;;;;5113852;28;20187;-84
2022/05/13 02:00:11;;;;;;;16.07;6.33;;;10.00;88.60;;;;;;5112511;28;20169;-83
2022/05/13 02:03:43;;;;;;;13.70;6.77;;;10.00;88.60;;;;;;5112279;28;20209;-84
2022/05/13 02:05:22;;;;;;;20.73;6.67;;;10.00;88.80;;;;;;5113460;28;20608;-84
2022/05/13 02:07:48;;;;;;;20.37;7.57;;;9.90;88.90;;;;;;5113875;28;20175;-84
2022/05/13 02:10:14;;;;;;;18.77;6.63;;;9.90;89.00;;;;;;5112203;28;20174;-84
2022/05/13 02:12:40;;;;;;;11.60;6.40;;;10.00;89.00;;;;;;5113478;28;20188;-84
2022/05/13 02:15:07;;;;;;;19.93;7.50;;;10.00;88.90;;;;;;5112380;28;20195;-84
2022/05/13 02:17:32;;;;;;;15.43;6.53;;;10.00;88.90;;;;;;5112195;28;20652;-84
2022/05/13 02:19:58;;;;;;;14.90;6.77;;;10.00;89.00;;;;;;5112267;28;20182;-84
2022/05/13 02:22:23;;;;;;;17.30;7.07;;;10.00;89.10;;;;;;5113230;28;20200;-84
2022/05/13 02:24:49;;;;;;;21.57;8.70;;;10.10;89.00;;;;;;5113400;28;20641;-84
2022/05/13 02:27:14;;;;;;;16.80;7.00;;;10.10;88.90;;;;;;5112084;28;20628;-84
2022/05/13 02:29:40;;;;;;;16.27;7.17;;;10.10;88.90;;;;;;5113335;28;20170;-84
2022/05/13 02:32:06;;;;;;;20.30;7.60;;;10.10;89.00;;;;;;5113186;28;20607;-84
2022/05/13 02:34:31;;;;;;;16.33;7.23;;;10.10;89.00;;;;;;5112438;28;20654;-84
2022/05/13 02:36:57;;;;;;;13.93;6.90;;;10.10;89.00;;;;;;5111974;28;20560;-84
2022/05/13 02:39:22;;;;;;;17.40;6.87;;;10.10;89.10;;;;;;5113261;28;20182;-84
2022/05/13 02:41:49;;;;;;;12.90;6.53;;;10.10;89.30;;;;;;5111901;28;20237;-84
2022/05/13 02:44:14;;;;;;;14.20;7.00;;;10.10;89.30;;;;;;5112023;28;20180;-84
2022/05/13 02:46:41;;;;;;;16.47;6.50;;;10.10;89.40;;;;;;5113303;28;20170;-84
2022/05/13 02:49:07;;;;;;;15.50;6.87;;;10.00;89.50;;;;;;5113939;28;20223;-84
2022/05/13 02:51:33;;;;;;;22.53;7.40;;;10.00;89.80;;;;;;5116908;28;20640;-85
2022/05/13 02:53:58;;;;;;;18.30;7.53;;;10.20;89.80;;;;;;5115554;28;20261;-84
2022/05/13 02:56:25;;;;;;;10.13;6.67;;;10.20;89.80;;;;;;5115820;28;20261;-84
2022/05/13 02:58:51;;;;;;;15.07;6.73;;;10.30;89.80;;;;;;5116775;28;20182;-85
2022/05/13 03:01:18;;;;;;;19.97;7.37;;;10.30;89.80;;;;;;5115209;28;20683;-84
2022/05/13 03:03:46;;;;;;;16.07;8.17;;;10.30;89.70;;;;;;5116521;28;20273;-84
2022/05/13 03:06:12;;;;;;;17.97;7.77;;;10.30;89.70;;;;;;5115152;28;20179;-84
2022/05/13 03:08:38;;;;;;;15.30;6.87;;;10.30;89.80;;;;;;5115272;28;20196;-84
2022/05/13 03:11:05;;;;;;;15.30;7.83;;;10.40;89.60;;;;;;5116626;28;20174;-84
2022/05/13 03:13:31;;;;;;;14.90;7.27;;;10.40;89.50;;;;;;5116756;27;20186;-84
2022/05/13 03:16:06;;;;;;;16.63;7.60;;;10.40;89.30;;;;;;5116690;28;20166;-85
2022/05/13 03:18:31;;;;;;;16.30;7.83;;;10.40;89.40;;;;;;5115161;28;20226;-84
2022/05/13 03:20:57;;;;;;;16.87;7.77;;;10.40;89.30;;;;;;5116339;28;20207;-84
2022/05/13 03:23:23;;;;;;;15.60;7.30;;;10.50;89.20;;;;;;5115003;28;20184;-85
2022/05/13 03:25:48;;;;;;;19.70;7.57;;;10.50;89.10;;;;;;5115140;28;20544;-84
2022/05/13 03:28:14;;;;;;;16.93;7.80;;;10.50;89.20;;;;;;5116377;28;20162;-84
2022/05/13 03:30:40;;;;;;;17.57;8.67;;;10.50;88.90;;;;;;5116179;28;20170;-84
2022/05/13 03:33:05;;;;;;;16.90;7.73;;;10.50;88.90;;;;;;5115874;28;20201;-84
2022/05/13 03:35:31;;;;;;;16.90;8.00;;;10.50;89.00;;;;;;5115901;28;20219;-84
2022/05/13 03:37:57;;;;;;;15.10;7.83;;;10.50;89.00;;;;;;5115924;27;20627;-84
2022/05/13 03:40:23;;;;;;;14.67;7.43;;;10.50;88.80;;;;;;5115629;28;20178;-84
2022/05/13 03:42:49;;;;;;;17.23;7.83;;;10.60;88.80;;;;;;5115774;28;20279;-84
2022/05/13 03:45:18;;;;;;;12.07;7.47;;;10.60;88.60;;;;;;5115999;28;20682;-84
2022/05/13 03:47:44;;;;;;;15.97;7.50;;;10.60;88.50;;;;;;5115928;28;20251;-84
2022/05/13 03:50:10;;;;;;;15.60;7.47;;;10.60;88.50;;;;;;5115962;28;20203;-84
2022/05/13 03:52:36;;;;;;;17.53;6.47;;;10.60;88.10;;;;;;5114220;28;20194;-84
2022/05/13 03:55:04;;;;;;;14.10;7.07;;;10.60;88.10;;;;;;5115264;28;20218;-84
2022/05/13 03:57:30;;;;;;;19.40;10.50;;;10.60;88.00;;;;;;5114276;28;20647;-84
2022/05/13 03:59:57;;;;;;;14.57;6.63;;;10.60;87.90;;;;;;5115575;28;20173;-84
2022/05/13 04:02:23;;;;;;;13.23;7.50;;;10.60;87.60;;;;;;5115366;28;20202;-84
2022/05/13 04:10:17;;;;;;;11.10;6.47;;;10.70;87.20;;;;;;5115742;28;20165;-85
2022/05/13 04:18:11;;;;;;;9.37;6.37;;;10.70;87.30;;;;;;5115895;28;20169;-84
2022/05/13 04:20:36;;;;;;;11.43;6.57;;;10.70;86.80;;;;;;5113822;28;20181;-84
2022/05/13 04:23:03;;;;;;;13.77;6.07;;;10.70;86.50;;;;;;5115217;28;20197;-84
2022/05/13 04:25:28;;;;;;;15.37;6.23;;;10.70;86.20;;;;;;5113943;28;20166;-84
2022/05/13 04:27:54;;;;;;;13.17;6.63;;;10.80;86.10;;;;;;5115100;28;20167;-85
2022/05/13 04:30:20;;;;;;;12.67;6.37;;;10.70;86.20;;;;;;5113681;28;20178;-85
2022/05/13 04:32:45;;;;;;;12.40;5.70;;;10.80;86.20;;;;;;5113551;28;20238;-84
2022/05/13 04:35:11;;;;;;;12.87;5.83;;;10.80;85.80;;;;;;5115057;28;20173;-84
2022/05/13 04:37:38;;;;;;;12.60;5.53;;;10.80;85.80;;;;;;5114961;28;20174;-84
2022/05/13 04:40:05;;;;;;;12.07;5.33;;;10.80;85.50;;;;;;5113325;28;20178;-85
2022/05/13 04:45:23;;;;;;;12.97;6.10;;;10.80;84.80;;;;;;5115051;28;20169;-84
2022/05/13 04:50:35;;;;;;;15.03;5.70;;;10.90;85.30;;;;;;5114972;28;20680;-84
2022/05/13 04:53:01;;;;;;;11.93;5.97;;;10.90;84.90;;;;;;5113160;28;20223;-84
2022/05/13 04:55:26;;;;;;;16.43;5.90;;;10.90;84.60;;;;;;5114716;28;20215;-84
2022/05/13 04:57:52;;;;;;;9.30;5.10;;;11.00;83.60;;;;;;5113360;28;20173;-85
2022/05/13 05:00:18;;;;;;;7.87;5.00;;;11.00;83.30;;;;;;5113550;28;20178;-84
2022/05/13 05:02:43;;;;;;;15.63;5.30;;;11.00;83.30;;;;;;5113214;28;20213;-84
2022/05/13 05:05:09;;;;;;;7.73;4.60;;;11.10;83.00;;;;;;5113155;28;20184;-85
2022/05/13 05:07:35;;;;;;;7.30;4.73;;;11.00;83.00;;;;;;5113215;28;20174;-84
2022/05/13 05:10:00;;;;;;;9.63;4.73;;;11.10;82.40;;;;;;5113425;28;20597;-85
2022/05/13 05:12:26;;;;;;;7.80;4.60;;;11.10;82.40;;;;;;5114198;28;20189;-85
2022/05/13 05:14:52;;;;;;;10.33;4.63;;;11.10;82.70;;;;;;5114451;28;20535;-86
2022/05/13 05:17:17;;;;;;;9.10;4.93;;;11.10;82.50;;;;;;5113045;28;20180;-85
2022/05/13 05:19:43;;;;;;;10.63;5.03;;;11.20;82.60;;;;;;5113283;28;20214;-85
2022/05/13 05:22:08;;;;;;;11.90;4.67;;;11.20;82.60;;;;;;5113094;28;20221;-84
2022/05/13 05:24:34;;;;;;;10.80;4.80;;;11.20;82.40;;;;;;5114618;28;20249;-85
2022/05/13 05:26:59;;;;;;;7.97;4.17;;;11.20;82.30;;;;;;5114064;28;20249;-84
2022/05/13 05:29:25;;;;;;;10.30;4.60;;;11.30;82.00;;;;;;5114340;28;20249;-85
2022/05/13 05:31:50;;;;;;;7.23;4.40;;;11.30;81.80;;;;;;5112993;28;20273;-85
2022/05/13 05:34:17;;;;;;;12.30;4.80;;;11.30;81.50;;;;;;5114425;28;20277;-85
2022/05/13 05:36:43;;;;;;;10.73;4.27;;;11.40;81.90;;;;;;5112771;28;20181;-85
2022/05/13 05:39:09;;;;;;;12.57;5.27;;;11.40;81.10;;;;;;5112676;28;20178;-86
2022/05/13 05:41:34;;;;;;;9.83;3.77;;;11.50;80.60;;;;;;5112561;28;20201;-85
2022/05/13 05:44:00;;;;;;;11.10;4.70;;;11.50;80.50;;;;;;5114299;28;20162;-86
2022/05/13 05:46:26;;;;;;;11.43;4.30;;;11.50;80.60;;;;;;5112831;28;20173;-84
2022/05/13 05:48:51;;;;;;;8.03;4.00;;;11.60;80.30;;;;;;5112508;28;20174;-84
2022/05/13 05:51:17;;;;;;;12.30;4.50;;;11.60;80.30;;;;;;5112928;28;20196;-85
2022/05/13 05:59:11;;;;;;;9.27;3.73;;;11.70;80.00;;;;;;5114426;28;20592;-85
2022/05/13 06:01:37;;;;;;;10.53;4.07;;;11.70;79.70;;;;;;5113702;28;20193;-85
2022/05/13 06:04:03;;;;;;;8.27;4.57;;;11.70;79.50;;;;;;5112633;28;20174;-85
2022/05/13 06:06:28;;;;;;;12.70;4.00;;;11.60;78.90;;;;;;5113973;28;20646;-85
2022/05/13 06:08:55;;;;;;;10.87;4.23;;;11.70;79.30;;;;;;5112659;28;20174;-84
2022/05/13 06:11:23;;;;;;;9.03;4.33;;;11.70;79.40;;;;;;5112698;28;20178;-84
2022/05/13 06:13:51;;;;;;;7.50;4.13;;;11.70;79.50;;;;;;5112278;28;20574;-84
2022/05/13 06:16:17;;;;;;;20.90;4.73;;;11.70;79.40;;;;;;5113859;28;20170;-85
2022/05/13 06:18:43;;;;;;;8.93;4.10;;;11.70;79.50;;;;;;5112365;28;20181;-85
2022/05/13 06:21:09;;;;;;;8.70;3.93;;;11.70;79.50;;;;;;5112391;28;20208;-85
2022/05/13 06:23:35;;;;;;;8.30;3.97;;;11.70;80.00;;;;;;5113717;28;20281;-85
2022/05/13 06:26:02;;;;;;;10.00;4.73;;;11.70;79.80;;;;;;5117650;28;20219;-85
2022/05/13 06:28:28;;;;;;;10.97;4.17;;;11.70;79.70;;;;;;5116238;28;20180;-85
2022/05/13 06:30:53;;;;;;;6.83;3.57;;;11.80;79.60;;;;;;5116066;28;20178;-84
2022/05/13 06:33:19;;;;;;;12.43;4.90;;;11.80;79.70;;;;;;5116068;28;20289;-85
2022/05/13 06:35:45;;;;;;;10.67;4.03;;;11.80;79.50;;;;;;5115890;28;20174;-84
2022/05/13 06:38:22;;;;;;;8.53;3.93;;;11.80;79.80;;;;;;5117513;28;20580;-84
2022/05/13 06:40:49;;;;;;;14.33;4.57;;;11.80;79.60;;;;;;5115738;28;20238;-84
2022/05/13 06:43:15;;;;;;;13.63;4.23;;;11.80;79.40;;;;;;5117028;28;20221;-84
2022/05/13 06:45:41;;;;;;;13.87;4.70;;;11.80;79.20;;;;;;5115872;28;20166;-84
2022/05/13 06:48:07;;;;;;;6.60;3.73;;;11.80;79.20;;;;;;5115824;28;20197;-85
2022/05/13 06:50:33;;;;;;;21.20;5.30;;;11.70;79.30;;;;;;5117153;28;20214;-85
2022/05/13 06:52:59;;;;;;;18.80;4.93;;;11.70;79.80;;;;;;5115741;28;20285;-85
2022/05/13 06:55:24;;;;;;;11.10;4.73;;;11.80;79.90;;;;;;5115826;28;20256;-85
2022/05/13 06:57:50;;;;;;;17.33;5.20;;;11.80;79.90;;;;;;5115686;28;20166;-84
2022/05/13 07:00:17;;;;;;;13.63;5.40;;;11.70;80.00;;;;;;5115893;28;20276;-84
2022/05/13 07:02:43;;;;;;;17.07;5.03;;;11.80;80.00;;;;;;5115461;28;20209;-84
2022/05/13 07:05:10;;;;;;;12.53;4.30;;;11.80;79.90;;;;;;5115609;28;20639;-84
2022/05/13 07:07:37;;;;;;;9.83;4.13;;;11.80;79.50;;;;;;5115499;28;20178;-84
2022/05/13 07:10:03;;;;;;;11.40;4.67;;;11.80;79.70;;;;;;5116516;28;20169;-84
2022/05/13 07:12:29;;;;;;;12.73;4.83;;;11.80;79.70;;;;;;5115522;28;20741;-85
2022/05/13 07:14:55;;;;;;;9.80;4.77;;;11.90;80.00;;;;;;5115439;28;20174;-84
2022/05/13 07:17:21;;;;;;;13.73;4.73;;;11.90;80.00;;;;;;5115125;28;20178;-84
2022/05/13 07:19:47;;;;;;;18.13;5.17;;;11.90;80.00;;;;;;5115304;28;20200;-84
2022/05/13 07:22:13;;;;;;;13.00;5.40;;;11.90;80.00;;;;;;5115075;28;20741;-85
2022/05/13 07:24:38;;;;;;;13.30;4.57;;;12.00;80.10;;;;;;5115307;28;20174;-84
2022/05/13 07:27:05;;;;;;;12.30;5.00;;;12.00;80.00;;;;;;5116237;28;20219;-84
2022/05/13 07:29:31;;;;;;;12.13;5.63;;;12.10;80.10;;;;;;5115097;28;20170;-85
2022/05/13 07:31:57;;;;;;;13.23;5.40;;;12.20;80.00;;;;;;5116117;28;20322;-85
2022/05/13 07:34:22;;;;;;;11.07;4.53;;;12.30;80.00;;;;;;5114611;28;20653;-84
2022/05/13 07:36:48;;;;;;;14.97;5.70;;;12.30;79.50;;;;;;5114961;28;20181;-83
2022/05/13 07:41:58;;;;;;;16.23;6.20;;;12.40;79.80;;;;;;5115838;28;20213;-83
2022/05/13 07:44:24;;;;;;;15.13;6.60;;;12.40;80.00;;;;;;5115879;28;20174;-84
2022/05/13 07:46:51;;;;;;;10.13;5.37;;;12.60;80.10;;;;;;5115906;28;20186;-87
2022/05/13 07:49:16;;;;;;;18.23;5.30;;;12.60;79.90;;;;;;5132250;22;20276;-88
2022/05/13 07:51:42;;;;;;;18.60;6.37;;;12.60;79.90;;;;;;5037275;28;20265;-89
2022/05/13 07:54:08;;;;;;;23.30;5.73;;;12.60;80.10;;;;;;5037166;28;20179;-89
2022/05/13 07:56:34;;;;;;;14.00;5.63;;;12.60;79.80;;;;;;5037209;28;20588;-89
2022/05/13 07:59:02;;;;;;;17.73;6.20;;;12.70;79.50;;;;;;5036991;28;20172;-88
2022/05/13 08:01:28;;;;;;;17.73;5.77;;;12.70;80.10;;;;;;5037002;28;20295;-88
2022/05/13 08:03:56;;;;;;;17.13;5.93;;;12.70;80.20;;;;;;5036958;28;20267;-89
2022/05/13 08:06:22;;;;;;;13.43;6.00;;;12.70;79.50;;;;;;5055058;28;20533;-88
2022/05/13 08:08:53;;;;;;;24.03;6.20;;;12.80;79.20;;;;;;5036903;28;20181;-89
2022/05/13 08:11:19;;;;;;;12.40;5.10;;;12.80;78.90;;;;;;5037774;28;20200;-88
2022/05/13 08:13:45;;;;;;;13.30;5.50;;;13.00;78.80;;;;;;5037846;28;20180;-87
2022/05/13 08:16:16;;;;;;;20.23;5.23;;;13.10;79.20;;;;;;5054579;28;20241;-88
2022/05/13 08:18:44;;;;;;;16.17;5.53;;;13.30;79.20;;;;;;5037083;28;20199;-89
2022/05/13 08:21:10;;;;;;;13.27;5.13;;;13.30;78.30;;;;;;5054353;28;20355;-90
2022/05/13 08:23:36;;;;;;;15.67;5.90;;;13.40;78.50;;;;;;5036651;28;20180;-89
2022/05/13 08:26:02;;;;;;;21.47;6.27;;;13.40;78.40;;;;;;5036673;28;20172;-90
2022/05/13 08:28:28;;;;;;;23.53;6.87;;;13.40;78.00;;;;;;5036556;28;20226;-90
2022/05/13 08:30:54;;;;;;;19.80;5.73;;;13.60;77.70;;;;;;5036490;28;20207;-90
2022/05/13 08:33:20;;;;;;;17.77;5.60;;;13.50;77.30;;;;;;5036578;28;20180;-90
2022/05/13 08:35:50;;;;;;;17.93;5.83;;;13.60;77.50;;;;;;5054467;28;20168;-90
2022/05/13 08:38:19;;;;;;;12.13;5.83;;;13.30;77.80;;;;;;5036606;28;20176;-89
2022/05/13 08:40:52;;;;;;;19.90;6.37;;;13.40;78.30;;;;;;5036279;28;20203;-91
2022/05/13 08:43:27;;;;;;;22.07;6.30;;;13.40;77.10;;;;;;5036351;28;20203;-90
2022/05/13 08:46:00;;;;;;;19.60;7.33;;;13.50;78.00;;;;;;5053286;28;20210;-90
2022/05/13 08:48:41;;;;;;;21.73;6.47;;;13.70;78.40;;;;;;5036959;28;20222;-89
2022/05/13 08:51:12;;;;;;;13.83;5.23;;;13.70;78.40;;;;;;5054464;28;20589;-88
2022/05/13 08:53:57;;;;;;;17.00;6.10;;;13.70;77.00;;;;;;5043710;28;20178;-89
2022/05/13 08:56:28;;;;;;;16.10;6.00;;;13.80;77.30;;;;;;5041171;28;20207;-91
2022/05/13 08:58:56;;;;;;;14.73;5.47;;;13.90;77.00;;;;;;5041285;28;20174;-90
2022/05/13 09:01:30;;;;;;;23.00;6.50;;;13.80;77.20;;;;;;5041591;28;20179;-89
2022/05/13 09:04:04;;;;;;;15.77;6.40;;;13.90;77.70;;;;;;5036813;28;20267;-88
2022/05/13 09:06:40;;;;;;;21.83;7.03;;;14.10;77.00;;;;;;5035968;28;20176;-89
2022/05/13 09:09:10;;;;;;;21.57;6.97;;;14.20;77.60;;;;;;5053614;28;20164;-89
2022/05/13 09:11:52;;;;;;;16.60;6.33;;;14.10;76.20;;;;;;5035786;28;20645;-88
2022/05/13 09:14:31;;;;;;;16.53;5.77;;;14.30;76.30;;;;;;5036094;28;20179;-89
2022/05/13 09:16:59;;;;;;;22.03;6.03;;;14.10;76.20;;;;;;5035731;28;20255;-88
2022/05/13 09:19:50;;;;;;;15.93;6.07;;;14.20;76.70;;;;;;5035504;28;20677;-89
2022/05/13 09:22:15;;;;;;;15.07;6.00;;;14.10;76.20;;;;;;5053841;28;20164;-88
2022/05/13 09:24:41;;;;;;;17.33;6.43;;;14.00;76.00;;;;;;5035501;28;20187;-88
2022/05/13 09:27:07;;;;;;;19.30;6.80;;;14.10;76.60;;;;;;5035412;28;20266;-89
2022/05/13 09:29:43;;;;;;;14.90;5.80;;;14.10;76.70;;;;;;5035334;28;20219;-88
2022/05/13 09:32:21;;;;;;;23.97;6.40;;;14.10;76.40;;;;;;5055326;28;20195;-88
2022/05/13 09:35:05;;;;;;;19.17;6.90;;;14.10;76.70;;;;;;5035495;28;20263;-90
2022/05/13 09:37:40;;;;;;;19.83;6.63;;;13.80;76.40;;;;;;5035898;28;20255;-89
2022/05/13 09:40:26;;;;;;;21.10;6.37;;;13.90;77.20;;;;;;5053196;28;20187;-88
2022/05/13 09:42:57;;;;;;;20.57;7.00;;;13.90;76.90;;;;;;5035508;28;20226;-89
2022/05/13 09:45:27;;;;;;;16.30;5.30;;;14.00;76.10;;;;;;5054325;28;20172;-88
2022/05/13 09:48:16;;;;;;;12.87;5.87;;;14.10;76.00;;;;;;5036054;28;20207;-89
2022/05/13 09:50:45;;;;;;;18.43;5.43;;;14.50;76.20;;;;;;5036683;28;20211;-90
2022/05/13 09:53:20;;;;;;;17.37;5.43;;;14.70;74.90;;;;;;5037170;28;20255;-89
2022/05/13 09:55:46;;;;;;;14.77;5.83;;;14.60;73.80;;;;;;5039081;28;20183;-89
2022/05/13 09:58:21;;;;;;;13.80;5.30;;;14.40;74.20;;;;;;5041236;28;20182;-90
2022/05/13 10:00:57;;;;;;;15.43;5.43;;;14.30;74.60;;;;;;5042778;28;20195;-89
2022/05/13 10:03:29;;;;;;;14.03;5.10;;;14.30;75.10;;;;;;5043624;28;20237;-90
2022/05/13 10:06:17;;;;;;;23.03;5.87;;;14.20;75.40;;;;;;5044826;28;20175;-90
2022/05/13 10:14:36;;;;;;;12.07;4.10;;;13.10;83.40;;;;;;5061072;28;20164;-89
2022/05/13 10:17:27;;;;;;;8.93;4.10;;;12.80;82.80;;;;;;5042770;28;20172;-89
2022/05/13 10:19:56;;;;;;;11.33;5.00;;;12.60;84.30;;;;;;5058392;28;20188;-88
2022/05/13 10:22:27;;;;;;;12.70;5.43;;;12.80;85.20;;;;;;5042460;28;20209;-91
2022/05/13 10:25:11;;;;;;;13.13;4.90;;;12.70;85.10;;;;;;5057506;28;20161;-90
2022/05/13 10:27:49;;;;;;;11.80;5.27;;;12.70;84.90;;;;;;5040175;28;20176;-90
2022/05/13 10:30:31;;;;;;;13.43;4.77;;;12.80;85.50;;;;;;5041272;28;20202;-92
2022/05/13 10:33:13;;;;;;;13.00;5.30;;;12.70;84.90;;;;;;5043239;28;20196;-90
2022/05/13 10:35:53;;;;;;;10.57;5.03;;;12.80;84.80;;;;;;5041950;28;20172;-90
2022/05/13 10:38:29;;;;;;;5.87;3.30;;;12.80;84.90;;;;;;5039896;28;20168;-89
2022/05/13 10:41:03;;;;;;;10.23;4.47;;;12.90;83.80;;;;;;5038895;28;20564;-89
2022/05/13 10:43:39;;;;;;;10.87;3.80;;;12.90;84.40;;;;;;5039021;28;20164;-89
2022/05/13 10:46:22;;;;;;;12.67;3.60;;;12.90;84.40;;;;;;5039050;28;20164;-89
2022/05/13 10:48:52;;;;;;;13.03;4.13;;;13.00;84.30;;;;;;5039505;28;20175;-89
2022/05/13 10:51:21;;;;;;;9.90;3.73;;;13.00;82.70;;;;;;5038309;28;20313;-89
2022/05/13 10:54:24;;;;;;;7.27;2.63;;;13.50;83.30;;;;;;5056773;28;20196;-89
2022/05/13 10:57:15;;;;;;;9.57;2.87;;;13.50;81.70;;;;;;5038632;28;20633;-89
2022/05/13 11:00:11;;;;;;;7.77;2.30;;;13.20;80.70;;;;;;5056869;28;20187;-89
2022/05/13 11:03:04;;;;;;;12.53;2.73;;;12.80;82.00;;;;;;5038200;28;20226;-88
2022/05/13 11:05:29;;;;;;;14.83;3.53;;;12.80;83.10;;;;;;5039074;28;20187;-89
2022/05/13 11:08:32;;;;;;;4.63;2.80;;;13.20;84.40;;;;;;5038172;28;20578;-89
2022/05/13 11:11:40;;;;;;;12.20;4.60;;;13.60;82.20;;;;;;5037514;28;20286;-89
2022/05/13 11:14:32;;;;;;;11.87;3.73;;;14.00;83.10;;;;;;5017277;28;20180;-89
2022/05/13 11:17:21;;;;;;;14.17;3.93;;;14.80;83.30;;;;;;5039095;28;20511;-88
2022/05/13 11:20:18;;;;;;;9.20;3.83;;;15.00;81.20;;;;;;5056006;28;20592;-89
2022/05/13 11:23:14;;;;;;;13.67;3.63;;;15.00;79.90;;;;;;5051704;28;20270;-89
2022/05/13 11:26:07;;;;;;;11.70;3.07;;;14.70;79.30;;;;;;5055707;28;20229;-89
2022/05/13 11:28:45;;;;;;;11.30;3.83;;;14.30;78.60;;;;;;5055591;28;20244;-89
2022/05/13 11:31:25;;;;;;;8.03;3.67;;;14.20;79.80;;;;;;5037515;28;20208;-89
2022/05/13 11:34:22;;;;;;;10.00;3.53;;;14.20;79.50;;;;;;5037642;28;20164;-89
2022/05/13 11:36:50;;;;;;;14.60;3.40;;;14.20;79.20;;;;;;5037611;28;20172;-89
2022/05/13 11:39:37;;;;;;;5.77;3.13;;;14.40;80.00;;;;;;5037535;28;20176;-89
2022/05/13 11:42:06;;;;;;;7.07;3.40;;;14.70;77.40;;;;;;5037277;28;20211;-88
2022/05/13 11:44:46;;;;;;;9.27;3.43;;;14.80;78.00;;;;;;5037331;28;20172;-89
2022/05/13 11:47:48;;;;;;;7.23;3.47;;;15.20;76.50;;;;;;5037371;28;20168;-89
2022/05/13 11:50:16;;;;;;;8.83;3.57;;;15.20;77.30;;;;;;5037882;28;20585;-89
2022/05/13 11:52:46;;;;;;;9.20;2.93;;;15.40;76.80;;;;;;5037161;28;20231;-88
2022/05/13 11:55:11;;;;;;;16.33;3.60;;;15.30;74.90;;;;;;5037113;28;20172;-89
2022/05/13 11:57:43;;;;;;;9.00;2.90;;;15.10;74.70;;;;;;5037226;28;20176;-88
2022/05/13 12:00:31;;;;;;;6.23;2.70;;;14.80;73.90;;;;;;5037082;28;20287;-88
2022/05/13 12:03:08;;;;;;;9.97;3.13;;;15.00;73.80;;;;;;5054889;28;20164;-89
2022/05/13 12:05:58;;;;;;;8.57;2.70;;;15.10;75.30;;;;;;5054811;28;20172;-88
2022/05/13 12:08:52;;;;;;;12.50;2.97;;;15.00;75.40;;;;;;5055076;28;20187;-88
2022/05/13 12:11:51;;;;;;;6.40;2.70;;;14.90;75.40;;;;;;5029251;28;20212;-88
2022/05/13 12:14:52;;;;;;;8.93;3.17;;;14.80;74.50;;;;;;5010459;28;20184;-88
2022/05/13 12:17:31;;;;;;;11.10;2.90;;;14.60;75.20;;;;;;5036888;28;20171;-88
2022/05/13 12:20:12;;;;;;;8.13;2.90;;;14.70;74.40;;;;;;5054610;28;20275;-88
2022/05/13 12:22:59;;;;;;;10.47;2.50;;;14.80;75.10;;;;;;5036274;28;20175;-88
2022/05/13 12:25:31;;;;;;;7.97;2.80;;;14.90;74.60;;;;;;5054707;28;20529;-89
2022/05/13 12:28:16;;;;;;;8.00;2.47;;;15.00;75.20;;;;;;5036761;28;20176;-89
2022/05/13 12:30:48;;;;;;;8.63;2.67;;;14.90;73.60;;;;;;5054771;28;20281;-89
2022/05/13 12:33:20;;;;;;;8.87;2.60;;;14.80;73.90;;;;;;5037435;28;20176;-89
2022/05/13 12:39:34;;;;;;;10.07;2.90;;;14.80;73.60;;;;;;5053091;28;20183;-88
2022/05/13 12:42:09;;;;;;;7.57;2.20;;;14.80;73.50;;;;;;5018992;28;20234;-89
2022/05/13 12:44:43;;;;;;;10.77;3.73;;;14.80;74.50;;;;;;5036199;28;20199;-88
2022/05/13 12:47:14;;;;;;;7.33;2.63;;;14.80;75.50;;;;;;5054386;28;20157;-89
2022/05/13 12:49:49;;;;;;;8.27;3.50;;;15.00;75.10;;;;;;5053774;28;20261;-88
2022/05/13 12:52:21;;;;;;;9.67;2.93;;;15.00;74.80;;;;;;5036054;28;20206;-88
2022/05/13 12:54:51;;;;;;;5.57;2.87;;;14.80;76.10;;;;;;5036094;28;20164;-88
2022/05/13 12:57:30;;;;;;;9.43;3.00;;;14.60;75.40;;;;;;5054453;28;20213;-88
2022/05/13 12:59:55;;;;;;;9.17;2.90;;;14.60;76.30;;;;;;5036033;28;20227;-88
2022/05/13 13:02:23;;;;;;;8.40;2.77;;;14.70;76.30;;;;;;5035841;28;20207;-88
2022/05/13 13:05:00;;;;;;;10.93;2.47;;;14.80;76.10;;;;;;5053657;28;20183;-89
2022/05/13 13:07:28;;;;;;;6.87;2.60;;;14.80;75.20;;;;;;5035854;28;20544;-88
2022/05/13 13:09:54;;;;;;;7.50;2.57;;;14.60;75.80;;;;;;5035686;28;20582;-88
2022/05/13 13:12:40;;;;;;;13.20;3.37;;;14.60;77.10;;;;;;5053497;28;20200;-87
2022/05/13 13:15:17;;;;;;;8.73;3.10;;;14.60;76.80;;;;;;5035664;28;20245;-87
2022/05/13 13:17:54;;;;;;;14.10;3.23;;;14.80;77.70;;;;;;5035605;28;20167;-87
2022/05/13 13:20:21;;;;;;;10.83;2.23;;;14.90;75.40;;;;;;5035600;28;20194;-87
2022/05/13 13:22:50;;;;;;;13.80;2.77;;;15.00;72.50;;;;;;5053343;28;20173;-86
2022/05/13 13:25:34;;;;;;;10.40;2.43;;;15.20;72.30;;;;;;5035412;28;20207;-87
2022/05/13 13:28:03;;;;;;;10.30;2.83;;;15.20;71.80;;;;;;5053263;28;20654;-87
2022/05/13 13:30:30;;;;;;;13.10;2.70;;;15.20;71.60;;;;;;5035449;28;20199;-87
2022/05/13 13:32:57;;;;;;;13.23;2.70;;;15.30;73.00;;;;;;5034889;28;20195;-87